Miami, Florida
Traffic Map
Current Weather Conditions
Miami, Florida
Broken Clouds
Broken Clouds
91°
Feels Like: 97°
Wind Chill: 91° Ceiling: 20000
Heat Index: 97° Visibility: 10mi
Dew Point: 70° Wind: 6mph
Humidity: 50% Direction: ° ()
Pressure: 30.02in Gusts: 0mph
Raw Report DataKMIA 291753Z VRB05KT 10SM FEW030 SCT050 BKN200 33/21 A3002 RMK AO2 SLP165 CB DSNT NW T03280211 10333 20272 55003
Traffic Incident Summary
Active as of:
Severity:
Category:
InformationThere was an issue retrieving the traffic information for this location. Please try a different location or try again shortly.
Advertisements
Track Severe Weather on mobile